MMCU/CUU METAR and TAF weather

Enter ICAO airport designator
Station Type Date Time Source
MMCU METAR 2019/02/16 00:47 UTC NOAA

MMCU 160047Z 23013KT 10SM BKN200 23/06 A2998 RMK 8/008


Station Type Date Time Source
MMCU Decoded METAR 2019/02/16 00:47 UTC NOAA

Chihuahua International Airport, Mexico (MMCU) 28-42N 105-58W
Feb 15, 2019 - 07:47 PM EST / 2019.02.16 0047 UTC
Wind: from the SW (230 degrees) at 15 MPH (13 KT):0
Visibility: 10 mile(s):0
Sky conditions: mostly cloudy
Temperature: 73 F (23 C)
Dew Point: 42 F (6 C)
Relative Humidity: 33%
Pressure (altimeter): 29.98 in. Hg (1015 hPa)
ob: MMCU 160047Z 23013KT 10SM BKN200 23/06 A2998 RMK 8/008
cycle: 1

Station Type Date Time Source
MMCU TAF 2019/02/15 18:46 UTC NOAA

TAF MMCU 151641Z 1518/1618 28010G20KT P6SM BKN080 BKN200
FM160400 27012KT P6SM BKN220
BECMG 1606/1607 23008KT
FM161600 26015KT P6SM BKN220


Example: see airport list